Time;durP1;ratioP1;P1;durP2;ratioP2;P2;SDS_P1;SDS_P2;PMS_P1;PMS_P2;Temp;Humidity;BMP_temperature;BMP_pressure;BME280_temperature;BME280_humidity;BME280_pressure;Samples;Min_cycle;Max_cycle;Signal;HPM_P1;HPM_P2
2023/03/19 00:00:02;;;;;;;8.43;3.00;;;;;;;;;;5080749;28;20045;-65
2023/03/19 00:02:31;;;;;;;4.72;2.88;;;;;;;;;;5082010;28;20537;-65
2023/03/19 00:04:58;;;;;;;6.80;3.10;;;;;;;;;;5083757;28;20044;-64
2023/03/19 00:07:25;;;;;;;7.70;2.83;;;;;;;;;;5057648;28;20055;-64
2023/03/19 00:09:53;;;;;;;7.00;3.30;;;;;;;;;;5085679;28;20048;-65
2023/03/19 00:12:20;;;;;;;5.35;2.88;;;;;;;;;;5083193;28;20052;-64
2023/03/19 00:14:47;;;;;;;5.18;2.92;;;;;;;;;;5079859;28;20048;-64
2023/03/19 00:17:16;;;;;;;6.65;3.35;;;;;;;;;;5083039;28;20044;-64
2023/03/19 00:19:43;;;;;;;8.02;3.35;;;;;;;;;;5082712;28;20101;-65
2023/03/19 00:22:10;;;;;;;8.35;3.20;;;;;;;;;;5086690;28;20056;-64
2023/03/19 00:24:37;;;;;;;4.70;2.95;;;;;;;;;;5080917;28;20054;-64
2023/03/19 00:27:05;;;;;;;5.05;2.78;;;;;;;;;;5083698;28;20043;-64
2023/03/19 00:29:32;;;;;;;5.60;2.67;;;;;;;;;;5085947;28;20040;-64
2023/03/19 00:32:00;;;;;;;5.65;2.67;;;;;;;;;;5066938;28;20059;-65
2023/03/19 00:34:28;;;;;;;7.22;2.92;;;;;;;;;;5065260;28;20055;-64
2023/03/19 00:36:56;;;;;;;5.07;2.38;;;;;;;;;;5080214;28;20044;-64
2023/03/19 00:39:23;;;;;;;4.57;2.13;;;;;;;;;;5079320;28;20133;-64
2023/03/19 00:41:50;;;;;;;4.78;2.38;;;;;;;;;;5082768;28;20039;-64
2023/03/19 00:44:18;;;;;;;5.65;2.50;;;;;;;;;;5085353;28;20052;-64
2023/03/19 00:46:45;;;;;;;5.65;2.40;;;;;;;;;;5082566;28;20077;-65
2023/03/19 00:49:13;;;;;;;5.60;2.90;;;;;;;;;;5086390;28;20538;-64
2023/03/19 00:51:42;;;;;;;5.68;3.20;;;;;;;;;;5086407;28;20044;-64
2023/03/19 00:54:11;;;;;;;5.20;3.33;;;;;;;;;;5084694;28;20415;-65
2023/03/19 00:56:39;;;;;;;4.78;3.60;;;;;;;;;;5086304;28;20064;-64
2023/03/19 00:59:06;;;;;;;6.55;3.80;;;;;;;;;;5088464;28;20048;-64
2023/03/19 01:01:34;;;;;;;8.13;4.10;;;;;;;;;;5083827;28;20052;-65
2023/03/19 01:04:01;;;;;;;9.18;4.20;;;;;;;;;;5091100;28;20552;-64
2023/03/19 01:06:28;;;;;;;6.38;4.15;;;;;;;;;;5087684;28;20063;-64
2023/03/19 01:08:57;;;;;;;7.75;5.03;;;;;;;;;;5069935;28;20036;-64
2023/03/19 01:11:24;;;;;;;7.53;4.72;;;;;;;;;;5084194;28;20045;-64
2023/03/19 01:13:52;;;;;;;6.90;4.65;;;;;;;;;;5088429;28;20044;-64
2023/03/19 01:16:19;;;;;;;7.75;4.53;;;;;;;;;;5084736;28;20048;-64
2023/03/19 01:18:46;;;;;;;6.88;4.53;;;;;;;;;;5084420;28;20053;-64
2023/03/19 01:21:14;;;;;;;6.75;4.20;;;;;;;;;;5081885;28;20057;-64
2023/03/19 01:23:41;;;;;;;6.80;4.47;;;;;;;;;;5091776;28;20512;-64
2023/03/19 01:26:10;;;;;;;7.63;4.07;;;;;;;;;;5070184;28;20451;-64
2023/03/19 01:28:37;;;;;;;9.98;3.72;;;;;;;;;;5085969;28;20495;-64
2023/03/19 01:31:07;;;;;;;5.25;3.22;;;;;;;;;;5086918;28;20044;-64
2023/03/19 01:33:34;;;;;;;6.45;3.72;;;;;;;;;;5084260;28;20060;-64
2023/03/19 01:36:03;;;;;;;9.75;3.80;;;;;;;;;;5086841;28;20048;-64
2023/03/19 01:38:30;;;;;;;5.50;3.55;;;;;;;;;;5084078;28;20052;-64
2023/03/19 01:40:58;;;;;;;5.38;3.70;;;;;;;;;;5087490;28;20453;-64
2023/03/19 01:43:27;;;;;;;8.27;3.58;;;;;;;;;;5090098;28;20036;-64
2023/03/19 01:45:56;;;;;;;4.68;3.38;;;;;;;;;;5086167;28;20052;-64
2023/03/19 01:48:28;;;;;;;5.90;3.38;;;;;;;;;;5087034;28;20123;-64
2023/03/19 01:50:55;;;;;;;3.92;2.95;;;;;;;;;;5078436;28;20491;-64
2023/03/19 01:53:25;;;;;;;5.20;3.15;;;;;;;;;;5082588;28;20051;-64
2023/03/19 01:55:53;;;;;;;5.88;3.45;;;;;;;;;;5087452;28;20075;-64
2023/03/19 01:58:21;;;;;;;5.00;3.22;;;;;;;;;;5087866;28;20066;-64
2023/03/19 02:00:50;;;;;;;4.95;3.42;;;;;;;;;;5079586;28;20048;-64
2023/03/19 02:03:17;;;;;;;6.88;3.63;;;;;;;;;;5084643;28;20052;-64
2023/03/19 02:05:45;;;;;;;7.90;4.30;;;;;;;;;;5080274;28;20419;-64
2023/03/19 02:08:14;;;;;;;6.50;4.53;;;;;;;;;;5081637;28;20051;-65
2023/03/19 02:10:42;;;;;;;10.30;5.43;;;;;;;;;;5081153;28;20074;-64
2023/03/19 02:13:10;;;;;;;13.57;6.40;;;;;;;;;;5084206;28;20052;-64
2023/03/19 02:15:38;;;;;;;11.35;6.45;;;;;;;;;;5083658;28;20048;-64
2023/03/19 02:18:07;;;;;;;9.95;7.30;;;;;;;;;;5083795;28;20415;-64
2023/03/19 02:20:37;;;;;;;11.23;7.97;;;;;;;;;;5082162;28;20048;-65
2023/03/19 02:23:07;;;;;;;12.75;8.20;;;;;;;;;;5089793;28;20058;-64
2023/03/19 02:25:40;;;;;;;12.68;8.18;;;;;;;;;;5088632;28;20063;-64
2023/03/19 02:28:09;;;;;;;16.48;9.98;;;;;;;;;;5082452;28;20052;-65
2023/03/19 02:30:37;;;;;;;15.55;10.73;;;;;;;;;;5084058;28;20048;-65
2023/03/19 02:33:05;;;;;;;19.92;11.55;;;;;;;;;;5064085;28;20503;-65
2023/03/19 02:35:34;;;;;;;20.48;12.70;;;;;;;;;;5088313;28;20043;-65
2023/03/19 02:38:02;;;;;;;20.42;13.10;;;;;;;;;;5087357;28;21157;-65
2023/03/19 02:40:31;;;;;;;23.10;14.50;;;;;;;;;;5080252;28;20126;-65
2023/03/19 02:42:59;;;;;;;23.60;14.70;;;;;;;;;;5082795;28;20052;-65
2023/03/19 02:45:30;;;;;;;21.33;14.77;;;;;;;;;;5088501;28;20114;-65
2023/03/19 02:47:57;;;;;;;23.42;15.23;;;;;;;;;;5090231;28;20048;-65
2023/03/19 02:50:25;;;;;;;22.02;15.70;;;;;;;;;;5087324;28;20124;-65
2023/03/19 02:52:52;;;;;;;28.58;16.65;;;;;;;;;;5078530;28;20059;-65
2023/03/19 02:55:20;;;;;;;28.88;17.50;;;;;;;;;;5081752;28;20721;-65
2023/03/19 02:57:47;;;;;;;35.45;18.02;;;;;;;;;;5084166;28;20131;-65
2023/03/19 03:00:17;;;;;;;28.88;18.40;;;;;;;;;;5086716;28;20045;-65
2023/03/19 03:02:46;;;;;;;28.67;19.17;;;;;;;;;;5071941;28;20423;-65
2023/03/19 03:05:14;;;;;;;33.13;19.98;;;;;;;;;;5079589;28;20059;-65
2023/03/19 03:07:42;;;;;;;30.45;19.10;;;;;;;;;;5087144;28;20044;-64
2023/03/19 03:10:11;;;;;;;29.33;20.05;;;;;;;;;;5087713;28;20040;-65
2023/03/19 03:12:38;;;;;;;30.75;19.92;;;;;;;;;;5087266;28;20044;-65
2023/03/19 03:15:07;;;;;;;35.58;20.05;;;;;;;;;;5058801;28;20391;-64
2023/03/19 03:17:34;;;;;;;31.67;19.88;;;;;;;;;;5089446;28;20135;-65
2023/03/19 03:20:03;;;;;;;31.80;19.77;;;;;;;;;;5089191;28;20044;-65
2023/03/19 03:22:31;;;;;;;26.20;18.13;;;;;;;;;;5085987;28;20051;-65
2023/03/19 03:24:58;;;;;;;28.88;19.00;;;;;;;;;;5084493;28;20051;-65
2023/03/19 03:27:25;;;;;;;27.92;18.58;;;;;;;;;;5087262;28;20493;-65
2023/03/19 03:29:53;;;;;;;30.33;19.13;;;;;;;;;;5087707;28;20040;-64
2023/03/19 03:32:20;;;;;;;27.30;17.48;;;;;;;;;;5086166;28;20040;-65
2023/03/19 03:34:47;;;;;;;27.30;18.17;;;;;;;;;;5085845;28;20050;-65
2023/03/19 03:37:16;;;;;;;32.80;20.23;;;;;;;;;;5061316;28;20594;-65
2023/03/19 03:39:43;;;;;;;33.42;20.95;;;;;;;;;;5087639;28;20475;-65
2023/03/19 03:42:11;;;;;;;33.35;20.63;;;;;;;;;;5086993;28;20063;-65
2023/03/19 03:44:38;;;;;;;35.47;20.83;;;;;;;;;;5087901;28;20052;-65
2023/03/19 03:47:06;;;;;;;32.75;21.80;;;;;;;;;;5086568;28;20059;-65
2023/03/19 03:49:33;;;;;;;34.25;22.08;;;;;;;;;;5065489;28;20408;-65
2023/03/19 03:52:00;;;;;;;33.55;22.05;;;;;;;;;;5085799;28;20312;-65
2023/03/19 03:54:29;;;;;;;36.20;22.80;;;;;;;;;;5081043;28;20044;-65
2023/03/19 03:56:56;;;;;;;35.95;22.40;;;;;;;;;;5088022;28;20170;-66
2023/03/19 03:59:24;;;;;;;39.97;23.73;;;;;;;;;;5087137;28;20051;-65
2023/03/19 04:01:51;;;;;;;36.72;22.73;;;;;;;;;;5085000;28;20455;-64
2023/03/19 04:04:19;;;;;;;38.35;22.38;;;;;;;;;;5079093;28;20055;-65
2023/03/19 04:06:47;;;;;;;43.22;24.98;;;;;;;;;;5082473;28;20059;-65
2023/03/19 04:09:14;;;;;;;38.63;23.73;;;;;;;;;;5078798;28;20411;-65
2023/03/19 04:11:43;;;;;;;38.50;23.48;;;;;;;;;;5086707;28;20041;-65
2023/03/19 04:14:10;;;;;;;45.90;25.83;;;;;;;;;;5065335;28;20539;-65
2023/03/19 04:16:38;;;;;;;41.50;23.35;;;;;;;;;;5085529;28;20060;-65
2023/03/19 04:19:06;;;;;;;40.75;23.95;;;;;;;;;;5085006;28;20048;-64
2023/03/19 04:21:33;;;;;;;41.10;23.88;;;;;;;;;;5086616;28;20090;-65
2023/03/19 04:24:01;;;;;;;39.35;23.85;;;;;;;;;;5088644;28;20044;-65
2023/03/19 04:26:28;;;;;;;37.70;23.23;;;;;;;;;;5081903;28;20052;-64
2023/03/19 04:28:58;;;;;;;37.58;23.50;;;;;;;;;;5070838;28;20058;-65
2023/03/19 04:31:25;;;;;;;40.40;23.15;;;;;;;;;;5087306;28;20044;-64
2023/03/19 04:33:53;;;;;;;45.60;24.02;;;;;;;;;;5086017;28;20070;-65
2023/03/19 04:36:21;;;;;;;40.67;22.77;;;;;;;;;;5085868;28;20048;-65
2023/03/19 04:38:48;;;;;;;43.28;22.55;;;;;;;;;;5081235;28;20441;-65
2023/03/19 04:41:15;;;;;;;41.28;23.17;;;;;;;;;;5082596;28;20047;-65
2023/03/19 04:43:43;;;;;;;45.05;24.58;;;;;;;;;;5061952;28;20048;-65
2023/03/19 04:46:11;;;;;;;45.35;24.42;;;;;;;;;;5086608;28;20047;-65
2023/03/19 04:48:39;;;;;;;37.65;23.38;;;;;;;;;;5086860;28;20478;-65
2023/03/19 04:51:08;;;;;;;45.17;23.90;;;;;;;;;;5084413;28;20097;-65
2023/03/19 04:53:36;;;;;;;52.83;25.52;;;;;;;;;;5066863;28;20703;-65
2023/03/19 04:56:03;;;;;;;43.10;24.33;;;;;;;;;;5086981;28;20503;-66
2023/03/19 04:58:31;;;;;;;49.35;26.38;;;;;;;;;;5085899;28;20056;-65
2023/03/19 05:00:58;;;;;;;54.30;27.05;;;;;;;;;;5083770;28;20055;-65
2023/03/19 05:03:27;;;;;;;50.03;24.25;;;;;;;;;;5080811;28;20047;-65
2023/03/19 05:05:54;;;;;;;44.28;24.13;;;;;;;;;;5084255;28;20047;-65
2023/03/19 05:08:21;;;;;;;51.80;26.20;;;;;;;;;;5079518;28;20055;-65
2023/03/19 05:10:49;;;;;;;44.70;25.77;;;;;;;;;;5085454;28;20108;-65
2023/03/19 05:13:16;;;;;;;53.15;26.45;;;;;;;;;;5084150;28;20052;-65
2023/03/19 05:15:44;;;;;;;44.55;24.50;;;;;;;;;;5080710;28;20075;-65
2023/03/19 05:18:12;;;;;;;42.92;24.05;;;;;;;;;;5079882;28;20487;-65
2023/03/19 05:20:41;;;;;;;40.17;23.48;;;;;;;;;;5082241;28;20036;-65
2023/03/19 05:23:08;;;;;;;43.45;23.48;;;;;;;;;;5079789;28;20499;-65
2023/03/19 05:25:36;;;;;;;37.85;22.73;;;;;;;;;;5082326;28;20051;-65
2023/03/19 05:28:03;;;;;;;35.80;20.80;;;;;;;;;;5087037;28;20044;-65
2023/03/19 05:30:31;;;;;;;33.97;20.85;;;;;;;;;;5074296;28;20158;-65
2023/03/19 05:32:59;;;;;;;35.70;19.75;;;;;;;;;;5082726;28;20048;-65
2023/03/19 05:35:28;;;;;;;31.23;19.48;;;;;;;;;;5078763;28;20110;-65
2023/03/19 05:37:56;;;;;;;38.60;21.42;;;;;;;;;;5084672;28;20070;-65
2023/03/19 05:40:24;;;;;;;35.50;21.10;;;;;;;;;;5079203;28;20048;-65
2023/03/19 05:42:51;;;;;;;37.30;21.58;;;;;;;;;;5080474;28;20048;-65
2023/03/19 05:45:19;;;;;;;41.33;23.95;;;;;;;;;;5080935;28;20052;-65
2023/03/19 05:47:48;;;;;;;42.10;25.02;;;;;;;;;;5087465;28;20047;-65
2023/03/19 05:50:16;;;;;;;46.22;24.63;;;;;;;;;;5088883;28;20075;-65
2023/03/19 05:52:44;;;;;;;54.08;27.17;;;;;;;;;;5083367;28;20063;-64
2023/03/19 05:55:12;;;;;;;49.35;25.88;;;;;;;;;;5090074;28;21363;-65
2023/03/19 05:57:40;;;;;;;49.10;24.25;;;;;;;;;;5084863;28;20059;-65
2023/03/19 06:00:08;;;;;;;46.72;24.10;;;;;;;;;;5089598;28;20052;-65
2023/03/19 06:02:36;;;;;;;45.63;24.33;;;;;;;;;;5091168;28;20485;-65
2023/03/19 06:05:03;;;;;;;48.85;24.60;;;;;;;;;;5080115;28;20048;-65
2023/03/19 06:07:30;;;;;;;49.17;25.02;;;;;;;;;;5087340;28;20495;-65
2023/03/19 06:09:58;;;;;;;44.50;23.15;;;;;;;;;;5082876;28;20043;-65
2023/03/19 06:12:26;;;;;;;51.00;23.85;;;;;;;;;;5090105;28;20055;-65
2023/03/19 06:14:53;;;;;;;49.70;24.33;;;;;;;;;;5088793;28;20063;-65
2023/03/19 06:17:21;;;;;;;46.70;24.48;;;;;;;;;;5089368;28;20044;-65
2023/03/19 06:19:48;;;;;;;45.47;23.10;;;;;;;;;;5087919;28;20049;-65
2023/03/19 06:22:15;;;;;;;42.97;21.90;;;;;;;;;;5088940;28;20080;-65
2023/03/19 06:24:42;;;;;;;39.78;22.25;;;;;;;;;;5088388;28;20052;-65
2023/03/19 06:27:10;;;;;;;41.92;20.75;;;;;;;;;;5082988;28;20055;-65
2023/03/19 06:29:38;;;;;;;36.88;19.73;;;;;;;;;;5084856;28;20048;-65
2023/03/19 06:32:06;;;;;;;39.28;19.73;;;;;;;;;;5091040;28;20051;-65
2023/03/19 06:34:33;;;;;;;35.95;19.27;;;;;;;;;;5070056;28;20063;-65
2023/03/19 06:37:00;;;;;;;37.95;20.02;;;;;;;;;;5087405;28;20044;-66
2023/03/19 06:39:28;;;;;;;36.50;21.08;;;;;;;;;;5078457;28;20044;-65
2023/03/19 06:41:56;;;;;;;41.38;20.45;;;;;;;;;;5090526;28;20071;-65
2023/03/19 06:44:24;;;;;;;37.78;20.02;;;;;;;;;;5086561;28;20118;-65
2023/03/19 06:46:52;;;;;;;35.33;18.73;;;;;;;;;;5081732;28;20110;-65
2023/03/19 06:49:20;;;;;;;37.22;20.95;;;;;;;;;;5079937;28;20044;-65
2023/03/19 06:51:47;;;;;;;38.55;21.02;;;;;;;;;;5083837;28;20044;-66
2023/03/19 06:54:15;;;;;;;31.85;19.55;;;;;;;;;;5086003;28;20071;-65
2023/03/19 06:56:42;;;;;;;34.58;19.95;;;;;;;;;;5078304;28;20059;-65
2023/03/19 06:59:11;;;;;;;37.38;19.92;;;;;;;;;;5088457;28;20040;-65
2023/03/19 07:01:39;;;;;;;37.28;20.65;;;;;;;;;;5086298;28;20040;-65
2023/03/19 07:04:07;;;;;;;36.97;20.48;;;;;;;;;;5085593;28;20045;-65
2023/03/19 07:06:35;;;;;;;36.33;21.25;;;;;;;;;;5086377;28;20475;-65
2023/03/19 07:09:03;;;;;;;37.95;20.20;;;;;;;;;;5090064;28;20055;-65
2023/03/19 07:11:30;;;;;;;34.83;20.00;;;;;;;;;;5086176;28;20453;-65
2023/03/19 07:13:57;;;;;;;40.78;21.00;;;;;;;;;;5087744;28;20065;-65
2023/03/19 07:16:24;;;;;;;35.20;20.40;;;;;;;;;;5085731;28;20562;-65
2023/03/19 07:18:52;;;;;;;44.97;22.65;;;;;;;;;;5083785;28;20044;-65
2023/03/19 07:21:21;;;;;;;48.47;22.98;;;;;;;;;;5061670;28;20393;-65
2023/03/19 07:23:49;;;;;;;50.83;23.40;;;;;;;;;;5080438;28;20059;-65
2023/03/19 07:26:18;;;;;;;66.30;24.27;;;;;;;;;;5080750;28;20044;-65
2023/03/19 07:28:46;;;;;;;63.38;24.98;;;;;;;;;;5086693;28;20044;-65
2023/03/19 07:31:13;;;;;;;73.63;26.90;;;;;;;;;;5085675;28;20518;-65
2023/03/19 07:33:40;;;;;;;84.93;28.08;;;;;;;;;;5088414;28;20410;-65
2023/03/19 07:36:08;;;;;;;95.22;29.02;;;;;;;;;;5087402;28;20100;-65
2023/03/19 07:38:39;;;;;;;86.03;28.40;;;;;;;;;;5079043;28;20052;-65
2023/03/19 07:41:06;;;;;;;88.35;28.70;;;;;;;;;;5088890;28;20048;-65
2023/03/19 07:43:33;;;;;;;89.78;28.98;;;;;;;;;;5069970;28;20505;-65
2023/03/19 07:46:01;;;;;;;96.00;30.50;;;;;;;;;;5089095;28;20055;-65
2023/03/19 07:48:28;;;;;;;92.53;31.08;;;;;;;;;;5087560;28;20522;-65
2023/03/19 07:50:56;;;;;;;105.78;30.38;;;;;;;;;;5088358;28;20070;-65
2023/03/19 07:53:24;;;;;;;105.70;30.83;;;;;;;;;;5087889;28;20119;-65
2023/03/19 07:55:53;;;;;;;125.43;33.80;;;;;;;;;;5084685;28;20378;-64
2023/03/19 07:58:20;;;;;;;101.38;31.67;;;;;;;;;;5084379;28;20044;-65
2023/03/19 08:00:48;;;;;;;126.25;32.88;;;;;;;;;;5065197;28;20048;-65
2023/03/19 08:03:15;;;;;;;133.77;33.90;;;;;;;;;;5085035;28;20052;-65
2023/03/19 08:05:42;;;;;;;106.43;32.30;;;;;;;;;;5084918;28;20520;-65
2023/03/19 08:08:09;;;;;;;116.40;33.65;;;;;;;;;;5084574;28;20063;-65
2023/03/19 08:10:37;;;;;;;103.93;31.85;;;;;;;;;;5087439;28;20059;-65
2023/03/19 08:13:05;;;;;;;106.15;32.00;;;;;;;;;;5082314;28;20055;-65
2023/03/19 08:15:33;;;;;;;96.22;32.25;;;;;;;;;;5085791;28;20441;-65
2023/03/19 08:18:00;;;;;;;92.30;31.52;;;;;;;;;;5082999;28;20052;-65
2023/03/19 08:20:28;;;;;;;93.07;30.20;;;;;;;;;;5086909;28;20447;-65
2023/03/19 08:22:55;;;;;;;103.10;31.33;;;;;;;;;;5085405;28;20051;-65
2023/03/19 08:25:22;;;;;;;125.57;30.08;;;;;;;;;;5085338;28;20105;-66
2023/03/19 08:27:50;;;;;;;103.22;30.77;;;;;;;;;;5080515;28;20411;-65
2023/03/19 08:30:19;;;;;;;169.55;35.83;;;;;;;;;;5082045;28;20097;-65
2023/03/19 08:32:48;;;;;;;122.32;32.30;;;;;;;;;;5083006;28;20456;-65
2023/03/19 08:35:15;;;;;;;111.60;30.63;;;;;;;;;;5081814;28;20048;-65
2023/03/19 08:37:42;;;;;;;128.93;31.10;;;;;;;;;;5084947;28;20511;-65
2023/03/19 08:40:10;;;;;;;150.75;32.20;;;;;;;;;;5088602;28;20071;-64
2023/03/19 08:42:40;;;;;;;125.47;30.77;;;;;;;;;;5086047;28;20048;-65
2023/03/19 08:45:08;;;;;;;110.78;32.22;;;;;;;;;;5085877;28;20047;-65
2023/03/19 08:47:37;;;;;;;122.03;30.63;;;;;;;;;;5087672;28;20513;-65
2023/03/19 08:50:05;;;;;;;120.22;30.13;;;;;;;;;;5087550;28;20414;-65
2023/03/19 08:52:32;;;;;;;131.60;29.05;;;;;;;;;;5065028;28;20044;-65
2023/03/19 08:54:59;;;;;;;119.57;30.08;;;;;;;;;;5083682;28;20076;-65
2023/03/19 08:57:27;;;;;;;116.72;29.45;;;;;;;;;;5080542;28;20048;-65
2023/03/19 08:59:54;;;;;;;154.70;31.67;;;;;;;;;;5082177;28;21173;-64
2023/03/19 09:02:21;;;;;;;112.35;28.63;;;;;;;;;;5087623;28;20050;-65
2023/03/19 09:04:50;;;;;;;123.13;29.50;;;;;;;;;;5061843;28;20056;-65
2023/03/19 09:07:17;;;;;;;142.60;31.25;;;;;;;;;;5087158;28;20055;-65
2023/03/19 09:09:45;;;;;;;126.70;29.58;;;;;;;;;;5083550;28;20491;-65
2023/03/19 09:12:14;;;;;;;100.25;25.98;;;;;;;;;;5083328;28;20483;-64
2023/03/19 09:14:41;;;;;;;86.22;24.27;;;;;;;;;;5083776;28;20044;-65
2023/03/19 09:17:08;;;;;;;84.00;22.48;;;;;;;;;;5083672;28;20052;-65
2023/03/19 09:19:36;;;;;;;80.75;24.38;;;;;;;;;;5086479;28;21057;-65
2023/03/19 09:22:05;;;;;;;86.03;22.40;;;;;;;;;;5089869;28;20048;-65
2023/03/19 09:24:32;;;;;;;80.07;24.35;;;;;;;;;;5069021;28;20357;-65
2023/03/19 09:27:00;;;;;;;87.43;23.83;;;;;;;;;;5092045;28;20044;-65
2023/03/19 09:29:27;;;;;;;89.78;24.58;;;;;;;;;;5071170;28;20052;-65
2023/03/19 09:31:54;;;;;;;76.80;23.35;;;;;;;;;;5073392;28;20055;-65
2023/03/19 09:34:21;;;;;;;70.47;19.42;;;;;;;;;;5087463;28;20048;-65
2023/03/19 09:36:49;;;;;;;55.20;18.35;;;;;;;;;;5092132;28;20062;-64
2023/03/19 09:39:18;;;;;;;52.00;16.10;;;;;;;;;;5081653;28;20044;-67
2023/03/19 09:41:50;;;;;;;53.67;16.58;;;;;;;;;;5087590;28;20036;-65
2023/03/19 09:44:20;;;;;;;52.38;17.73;;;;;;;;;;5092049;28;20070;-65
2023/03/19 09:46:50;;;;;;;54.65;17.40;;;;;;;;;;5089593;28;20071;-65
2023/03/19 09:49:22;;;;;;;51.58;17.50;;;;;;;;;;5087383;28;20092;-65
2023/03/19 09:51:51;;;;;;;62.33;20.00;;;;;;;;;;5084337;28;20424;-65
2023/03/19 09:54:30;;;;;;;54.90;18.92;;;;;;;;;;5091311;28;20113;-65
2023/03/19 09:56:58;;;;;;;54.58;19.45;;;;;;;;;;5087823;28;20162;-65
2023/03/19 09:59:26;;;;;;;44.75;15.57;;;;;;;;;;5070658;28;20471;-65
2023/03/19 10:01:56;;;;;;;43.88;15.55;;;;;;;;;;5089306;28;20043;-65
2023/03/19 10:04:35;;;;;;;41.13;14.75;;;;;;;;;;5090836;28;20059;-65
2023/03/19 10:07:07;;;;;;;34.78;12.60;;;;;;;;;;5089720;28;20051;-65
2023/03/19 10:09:42;;;;;;;33.17;11.15;;;;;;;;;;5084408;28;20048;-65
2023/03/19 10:12:17;;;;;;;26.88;10.10;;;;;;;;;;5088228;28;20101;-65
2023/03/19 10:15:03;;;;;;;22.15;9.63;;;;;;;;;;5088228;28;20067;-65
2023/03/19 10:17:33;;;;;;;23.08;9.10;;;;;;;;;;5084654;28;20160;-65
2023/03/19 10:20:03;;;;;;;19.08;8.82;;;;;;;;;;5082348;28;20067;-65
2023/03/19 10:22:32;;;;;;;20.55;9.15;;;;;;;;;;5087134;28;20380;-65
2023/03/19 10:25:02;;;;;;;26.67;9.88;;;;;;;;;;5090279;28;20059;-65
2023/03/19 10:27:29;;;;;;;19.15;9.00;;;;;;;;;;5088828;28;20519;-65
2023/03/19 10:29:57;;;;;;;25.65;11.48;;;;;;;;;;5091111;28;20398;-65
2023/03/19 10:32:29;;;;;;;21.67;10.90;;;;;;;;;;5088451;28;20048;-65
2023/03/19 10:34:58;;;;;;;29.65;13.25;;;;;;;;;;5081749;28;20040;-65
2023/03/19 10:37:27;;;;;;;34.72;15.77;;;;;;;;;;5078533;28;20059;-65
2023/03/19 10:39:56;;;;;;;36.10;15.80;;;;;;;;;;5089338;28;20225;-64
2023/03/19 10:42:40;;;;;;;31.52;16.42;;;;;;;;;;5087185;28;20044;-65
2023/03/19 10:45:14;;;;;;;29.25;14.98;;;;;;;;;;5088048;28;20048;-65
2023/03/19 10:47:41;;;;;;;29.35;13.45;;;;;;;;;;5085725;28;20036;-65
2023/03/19 10:50:15;;;;;;;27.08;13.75;;;;;;;;;;5087571;28;20048;-65
2023/03/19 10:52:43;;;;;;;30.58;15.20;;;;;;;;;;5081493;28;20086;-65
2023/03/19 10:55:14;;;;;;;33.47;15.18;;;;;;;;;;5085356;28;20063;-65
2023/03/19 10:57:44;;;;;;;24.33;12.32;;;;;;;;;;5085542;28;20048;-65
2023/03/19 11:00:17;;;;;;;25.30;11.75;;;;;;;;;;5088725;28;20055;-65
2023/03/19 11:02:47;;;;;;;25.40;11.68;;;;;;;;;;5064576;28;20240;-65
2023/03/19 11:05:23;;;;;;;22.63;10.73;;;;;;;;;;5086409;28;20053;-65
2023/03/19 11:07:51;;;;;;;24.23;11.73;;;;;;;;;;5086733;28;20052;-65
2023/03/19 11:10:20;;;;;;;26.30;12.13;;;;;;;;;;5085295;28;20063;-64
2023/03/19 11:12:53;;;;;;;23.45;11.63;;;;;;;;;;5086896;28;20131;-65
2023/03/19 11:15:21;;;;;;;25.52;10.95;;;;;;;;;;5081773;28;20048;-64
2023/03/19 11:17:50;;;;;;;22.08;10.38;;;;;;;;;;5089082;28;20044;-64
2023/03/19 11:20:22;;;;;;;25.98;11.13;;;;;;;;;;5086751;28;20063;-64
2023/03/19 11:22:50;;;;;;;23.83;11.57;;;;;;;;;;5085162;28;20455;-64
2023/03/19 11:25:19;;;;;;;25.35;10.63;;;;;;;;;;5088228;28;20278;-64
2023/03/19 11:27:58;;;;;;;25.08;11.25;;;;;;;;;;5087249;28;20476;-65
2023/03/19 11:30:28;;;;;;;23.83;12.10;;;;;;;;;;5081276;28;20051;-64
2023/03/19 11:33:08;;;;;;;23.58;11.80;;;;;;;;;;5062566;28;20049;-64
2023/03/19 11:35:38;;;;;;;23.98;11.65;;;;;;;;;;5087849;28;20484;-64
2023/03/19 11:38:05;;;;;;;23.60;11.65;;;;;;;;;;5084031;28;20498;-64
2023/03/19 11:40:36;;;;;;;23.58;11.00;;;;;;;;;;5078570;28;20098;-64
2023/03/19 11:43:21;;;;;;;22.80;11.10;;;;;;;;;;5085893;28;20044;-64
2023/03/19 11:45:54;;;;;;;22.85;11.18;;;;;;;;;;5087132;28;20044;-65
2023/03/19 11:48:29;;;;;;;21.90;11.15;;;;;;;;;;5088484;28;20135;-64
2023/03/19 11:50:59;;;;;;;23.73;11.52;;;;;;;;;;5086391;28;20456;-65
2023/03/19 11:53:28;;;;;;;26.80;11.50;;;;;;;;;;5087494;28;20134;-64
2023/03/19 11:56:01;;;;;;;24.58;11.73;;;;;;;;;;5089207;28;20048;-65
2023/03/19 11:58:47;;;;;;;26.63;12.15;;;;;;;;;;5084585;28;20212;-64
2023/03/19 12:01:20;;;;;;;21.63;11.63;;;;;;;;;;5084298;28;20063;-64
2023/03/19 12:03:57;;;;;;;25.88;13.43;;;;;;;;;;5088167;28;20380;-64
2023/03/19 12:06:31;;;;;;;26.17;13.27;;;;;;;;;;5084698;28;20055;-64
2023/03/19 12:09:02;;;;;;;30.27;15.48;;;;;;;;;;5082850;28;20044;-65
2023/03/19 12:11:35;;;;;;;35.28;16.35;;;;;;;;;;5066370;28;20040;-64
2023/03/19 12:14:25;;;;;;;34.55;17.77;;;;;;;;;;5083542;28;20043;-65
2023/03/19 12:17:05;;;;;;;36.28;17.67;;;;;;;;;;5082478;28;20391;-64
2023/03/19 12:19:54;;;;;;;36.25;17.67;;;;;;;;;;5081130;28;20127;-65
2023/03/19 12:22:26;;;;;;;42.80;19.40;;;;;;;;;;5051826;28;20529;-64
2023/03/19 12:25:11;;;;;;;46.80;21.27;;;;;;;;;;5086674;28;20051;-64
2023/03/19 12:27:40;;;;;;;44.58;18.85;;;;;;;;;;5081305;28;20048;-64
2023/03/19 12:30:13;;;;;;;38.45;19.52;;;;;;;;;;5086320;28;20051;-64
2023/03/19 12:32:47;;;;;;;39.20;19.30;;;;;;;;;;5082939;28;20491;-64
2023/03/19 12:35:17;;;;;;;37.35;18.92;;;;;;;;;;5084789;28;20765;-65
2023/03/19 12:37:48;;;;;;;40.35;20.05;;;;;;;;;;5080442;28;20051;-64
2023/03/19 12:40:23;;;;;;;37.80;19.00;;;;;;;;;;5082670;28;20058;-64
2023/03/19 12:42:50;;;;;;;38.58;18.23;;;;;;;;;;5076225;28;20467;-64
2023/03/19 12:45:25;;;;;;;40.40;19.95;;;;;;;;;;5082340;28;20048;-64
2023/03/19 12:47:57;;;;;;;39.22;20.48;;;;;;;;;;5081911;28;20067;-64
2023/03/19 12:50:26;;;;;;;40.20;20.15;;;;;;;;;;5084241;28;20040;-64
2023/03/19 12:52:57;;;;;;;42.15;20.33;;;;;;;;;;5080010;28;20093;-64
2023/03/19 12:55:27;;;;;;;42.83;20.45;;;;;;;;;;5067941;28;20070;-64
2023/03/19 12:57:57;;;;;;;44.92;21.48;;;;;;;;;;5072117;28;20040;-64
2023/03/19 13:00:28;;;;;;;43.45;20.63;;;;;;;;;;5068559;28;20049;-64
2023/03/19 13:03:03;;;;;;;49.67;21.38;;;;;;;;;;5069685;28;20040;-64
2023/03/19 13:05:33;;;;;;;40.38;20.48;;;;;;;;;;5067483;28;20119;-64
2023/03/19 13:08:04;;;;;;;40.00;19.95;;;;;;;;;;5070198;28;20044;-65
2023/03/19 13:10:32;;;;;;;48.38;20.88;;;;;;;;;;5072679;28;20612;-64
2023/03/19 13:13:00;;;;;;;42.97;18.98;;;;;;;;;;5071026;28;20492;-64
2023/03/19 13:15:29;;;;;;;42.67;20.10;;;;;;;;;;5074710;28;20094;-64
2023/03/19 13:18:06;;;;;;;42.15;20.25;;;;;;;;;;5071101;28;20041;-64
2023/03/19 13:20:44;;;;;;;39.65;19.77;;;;;;;;;;5072169;28;20048;-64
2023/03/19 13:23:14;;;;;;;44.58;20.23;;;;;;;;;;5072296;28;20056;-64
2023/03/19 13:25:43;;;;;;;38.15;19.08;;;;;;;;;;5068083;28;20139;-64
2023/03/19 13:28:11;;;;;;;37.63;18.88;;;;;;;;;;5064694;28;20052;-65
2023/03/19 13:30:41;;;;;;;32.63;18.02;;;;;;;;;;5070222;28;20045;-65
2023/03/19 13:33:18;;;;;;;34.90;17.83;;;;;;;;;;5067809;28;20044;-64
2023/03/19 13:35:45;;;;;;;36.53;19.60;;;;;;;;;;5069603;28;20063;-64
2023/03/19 13:38:18;;;;;;;40.13;18.95;;;;;;;;;;5070249;28;20435;-65
2023/03/19 13:40:46;;;;;;;37.40;19.13;;;;;;;;;;5071700;28;21002;-64
2023/03/19 13:43:40;;;;;;;35.65;17.35;;;;;;;;;;5072357;28;20055;-65
2023/03/19 13:46:23;;;;;;;35.47;18.45;;;;;;;;;;5072926;28;20049;-64
2023/03/19 13:48:52;;;;;;;38.28;18.65;;;;;;;;;;5068752;28;20052;-64
2023/03/19 13:51:25;;;;;;;39.35;19.17;;;;;;;;;;5073570;28;20096;-64
2023/03/19 13:53:52;;;;;;;;;;;;;;;;;;5071351;28;20052;-64
2023/03/19 13:56:21;;;;;;;45.03;22.13;;;;;;;;;;5072704;28;19966;-64
2023/03/19 13:58:51;;;;;;;47.25;22.42;;;;;;;;;;5068524;28;20056;-64
2023/03/19 14:01:38;;;;;;;53.13;24.33;;;;;;;;;;5067421;28;20052;-64
2023/03/19 14:04:07;;;;;;;52.85;23.77;;;;;;;;;;5068859;28;20037;-65
2023/03/19 14:06:36;;;;;;;48.83;22.83;;;;;;;;;;5065352;28;20114;-64
2023/03/19 14:09:04;;;;;;;49.95;22.67;;;;;;;;;;5066712;28;20542;-64
2023/03/19 14:11:33;;;;;;;45.30;22.30;;;;;;;;;;5066467;28;20068;-64
2023/03/19 14:14:03;;;;;;;43.00;21.60;;;;;;;;;;5063009;28;20041;-65
2023/03/19 14:16:32;;;;;;;35.63;20.08;;;;;;;;;;5067909;28;20060;-64
2023/03/19 14:19:01;;;;;;;38.78;19.58;;;;;;;;;;5066780;28;20056;-64
2023/03/19 14:21:34;;;;;;;41.28;19.52;;;;;;;;;;5067698;28;21098;-65
2023/03/19 14:24:16;;;;;;;42.97;21.20;;;;;;;;;;5069669;28;20282;-65
2023/03/19 14:26:44;;;;;;;46.92;20.60;;;;;;;;;;5063401;28;20052;-66
2023/03/19 14:29:14;;;;;;;47.40;20.73;;;;;;;;;;5065224;28;20055;-65
2023/03/19 14:31:43;;;;;;;46.30;20.00;;;;;;;;;;5068604;28;20783;-65